sensor_id;sensor_type;location;lat;lon;timestamp;P1;durP1;ratioP1;P2;durP2;ratioP2
5696;SDS011;2873;50.966;7.210;2023-06-22T00:00:31;8.10;;;7.30;;
5696;SDS011;2873;50.966;7.210;2023-06-22T00:02:56;8.60;;;6.72;;
5696;SDS011;2873;50.966;7.210;2023-06-22T00:05:23;6.82;;;6.13;;
5696;SDS011;2873;50.966;7.210;2023-06-22T00:07:49;8.17;;;6.30;;
5696;SDS011;2873;50.966;7.210;2023-06-22T00:10:14;10.23;;;6.93;;
5696;SDS011;2873;50.966;7.210;2023-06-22T00:12:40;9.93;;;6.87;;
5696;SDS011;2873;50.966;7.210;2023-06-22T00:15:05;9.40;;;6.93;;
5696;SDS011;2873;50.966;7.210;2023-06-22T00:17:31;8.52;;;6.50;;
5696;SDS011;2873;50.966;7.210;2023-06-22T00:19:56;7.40;;;6.60;;
5696;SDS011;2873;50.966;7.210;2023-06-22T00:22:23;7.85;;;6.35;;
5696;SDS011;2873;50.966;7.210;2023-06-22T00:24:54;8.80;;;6.97;;
5696;SDS011;2873;50.966;7.210;2023-06-22T00:27:20;8.80;;;6.30;;
5696;SDS011;2873;50.966;7.210;2023-06-22T00:29:46;8.18;;;6.70;;
5696;SDS011;2873;50.966;7.210;2023-06-22T00:32:11;7.05;;;6.35;;
5696;SDS011;2873;50.966;7.210;2023-06-22T00:34:37;7.60;;;6.50;;
5696;SDS011;2873;50.966;7.210;2023-06-22T00:37:02;7.35;;;6.53;;
5696;SDS011;2873;50.966;7.210;2023-06-22T00:39:28;7.80;;;6.70;;
5696;SDS011;2873;50.966;7.210;2023-06-22T00:41:54;7.40;;;6.70;;
5696;SDS011;2873;50.966;7.210;2023-06-22T00:44:20;7.30;;;6.60;;
5696;SDS011;2873;50.966;7.210;2023-06-22T00:46:45;7.00;;;6.40;;
5696;SDS011;2873;50.966;7.210;2023-06-22T00:49:11;7.90;;;7.03;;
5696;SDS011;2873;50.966;7.210;2023-06-22T00:51:37;9.70;;;6.87;;
5696;SDS011;2873;50.966;7.210;2023-06-22T00:54:04;7.05;;;6.35;;
5696;SDS011;2873;50.966;7.210;2023-06-22T00:56:30;8.20;;;6.03;;
5696;SDS011;2873;50.966;7.210;2023-06-22T00:58:58;8.77;;;6.72;;
5696;SDS011;2873;50.966;7.210;2023-06-22T01:01:25;7.90;;;6.70;;
5696;SDS011;2873;50.966;7.210;2023-06-22T01:03:51;7.47;;;6.70;;
5696;SDS011;2873;50.966;7.210;2023-06-22T01:06:19;7.63;;;6.68;;
5696;SDS011;2873;50.966;7.210;2023-06-22T01:09:13;6.80;;;6.20;;
5696;SDS011;2873;50.966;7.210;2023-06-22T01:14:43;9.52;;;6.57;;
5696;SDS011;2873;50.966;7.210;2023-06-22T01:17:14;7.07;;;5.80;;
5696;SDS011;2873;50.966;7.210;2023-06-22T01:19:46;7.25;;;6.55;;
5696;SDS011;2873;50.966;7.210;2023-06-22T01:22:13;7.25;;;6.53;;
5696;SDS011;2873;50.966;7.210;2023-06-22T01:27:28;7.20;;;6.50;;
5696;SDS011;2873;50.966;7.210;2023-06-22T01:29:57;7.85;;;6.75;;
5696;SDS011;2873;50.966;7.210;2023-06-22T01:32:29;6.50;;;5.90;;
5696;SDS011;2873;50.966;7.210;2023-06-22T01:34:57;7.35;;;6.65;;
5696;SDS011;2873;50.966;7.210;2023-06-22T01:37:25;6.68;;;6.07;;
5696;SDS011;2873;50.966;7.210;2023-06-22T01:39:52;9.60;;;6.18;;
5696;SDS011;2873;50.966;7.210;2023-06-22T01:42:20;7.90;;;6.93;;
5696;SDS011;2873;50.966;7.210;2023-06-22T01:44:46;6.85;;;6.03;;
5696;SDS011;2873;50.966;7.210;2023-06-22T01:47:12;7.20;;;6.22;;
5696;SDS011;2873;50.966;7.210;2023-06-22T01:49:39;7.85;;;6.18;;
5696;SDS011;2873;50.966;7.210;2023-06-22T01:52:06;8.63;;;6.70;;
5696;SDS011;2873;50.966;7.210;2023-06-22T01:54:32;8.02;;;6.45;;
5696;SDS011;2873;50.966;7.210;2023-06-22T01:56:58;7.10;;;6.40;;
5696;SDS011;2873;50.966;7.210;2023-06-22T02:02:07;7.15;;;6.45;;
5696;SDS011;2873;50.966;7.210;2023-06-22T02:04:46;7.10;;;6.40;;
5696;SDS011;2873;50.966;7.210;2023-06-22T02:07:17;6.57;;;5.95;;
5696;SDS011;2873;50.966;7.210;2023-06-22T02:09:44;7.95;;;7.10;;
5696;SDS011;2873;50.966;7.210;2023-06-22T02:12:12;9.20;;;6.88;;
5696;SDS011;2873;50.966;7.210;2023-06-22T02:14:41;7.80;;;6.88;;
5696;SDS011;2873;50.966;7.210;2023-06-22T02:17:07;7.80;;;7.00;;
5696;SDS011;2873;50.966;7.210;2023-06-22T02:19:37;7.90;;;6.40;;
5696;SDS011;2873;50.966;7.210;2023-06-22T02:22:03;10.70;;;6.90;;
5696;SDS011;2873;50.966;7.210;2023-06-22T02:24:29;7.43;;;6.40;;
5696;SDS011;2873;50.966;7.210;2023-06-22T02:27:00;7.32;;;6.60;;
5696;SDS011;2873;50.966;7.210;2023-06-22T02:29:27;8.38;;;6.60;;
5696;SDS011;2873;50.966;7.210;2023-06-22T02:31:53;7.80;;;6.50;;
5696;SDS011;2873;50.966;7.210;2023-06-22T02:34:19;7.63;;;6.82;;
5696;SDS011;2873;50.966;7.210;2023-06-22T02:36:46;9.98;;;7.15;;
5696;SDS011;2873;50.966;7.210;2023-06-22T02:39:20;8.63;;;7.20;;
5696;SDS011;2873;50.966;7.210;2023-06-22T02:41:47;7.85;;;7.05;;
5696;SDS011;2873;50.966;7.210;2023-06-22T02:44:14;7.65;;;6.95;;
5696;SDS011;2873;50.966;7.210;2023-06-22T02:46:40;8.90;;;6.40;;
5696;SDS011;2873;50.966;7.210;2023-06-22T02:49:05;8.87;;;6.70;;
5696;SDS011;2873;50.966;7.210;2023-06-22T02:51:32;8.30;;;7.10;;
5696;SDS011;2873;50.966;7.210;2023-06-22T02:54:01;8.50;;;7.65;;
5696;SDS011;2873;50.966;7.210;2023-06-22T02:56:28;10.07;;;7.50;;
5696;SDS011;2873;50.966;7.210;2023-06-22T02:58:55;10.55;;;7.50;;
5696;SDS011;2873;50.966;7.210;2023-06-22T03:01:25;8.38;;;7.40;;
5696;SDS011;2873;50.966;7.210;2023-06-22T03:03:53;9.70;;;7.00;;
5696;SDS011;2873;50.966;7.210;2023-06-22T03:06:19;10.40;;;7.05;;
5696;SDS011;2873;50.966;7.210;2023-06-22T03:08:48;9.38;;;7.20;;
5696;SDS011;2873;50.966;7.210;2023-06-22T03:11:16;10.07;;;7.18;;
5696;SDS011;2873;50.966;7.210;2023-06-22T03:13:41;9.02;;;7.47;;
5696;SDS011;2873;50.966;7.210;2023-06-22T03:16:07;8.20;;;7.20;;
5696;SDS011;2873;50.966;7.210;2023-06-22T03:18:33;11.35;;;7.15;;
5696;SDS011;2873;50.966;7.210;2023-06-22T03:20:59;8.20;;;7.40;;
5696;SDS011;2873;50.966;7.210;2023-06-22T03:23:25;7.82;;;7.03;;
5696;SDS011;2873;50.966;7.210;2023-06-22T03:25:50;10.20;;;7.83;;
5696;SDS011;2873;50.966;7.210;2023-06-22T03:28:16;8.65;;;7.53;;
5696;SDS011;2873;50.966;7.210;2023-06-22T03:30:42;8.68;;;7.80;;
5696;SDS011;2873;50.966;7.210;2023-06-22T03:33:08;9.32;;;7.57;;
5696;SDS011;2873;50.966;7.210;2023-06-22T03:35:33;10.23;;;8.03;;
5696;SDS011;2873;50.966;7.210;2023-06-22T03:37:59;8.73;;;7.60;;
5696;SDS011;2873;50.966;7.210;2023-06-22T03:40:24;8.70;;;7.80;;
5696;SDS011;2873;50.966;7.210;2023-06-22T03:42:50;8.90;;;7.50;;
5696;SDS011;2873;50.966;7.210;2023-06-22T03:45:15;8.20;;;7.40;;
5696;SDS011;2873;50.966;7.210;2023-06-22T03:47:41;8.35;;;7.55;;
5696;SDS011;2873;50.966;7.210;2023-06-22T03:50:07;8.98;;;8.00;;
5696;SDS011;2873;50.966;7.210;2023-06-22T03:52:33;10.03;;;8.17;;
5696;SDS011;2873;50.966;7.210;2023-06-22T03:54:58;8.40;;;7.47;;
5696;SDS011;2873;50.966;7.210;2023-06-22T03:57:24;9.82;;;8.23;;
5696;SDS011;2873;50.966;7.210;2023-06-22T03:59:49;9.32;;;8.15;;
5696;SDS011;2873;50.966;7.210;2023-06-22T04:02:15;9.37;;;8.30;;
5696;SDS011;2873;50.966;7.210;2023-06-22T04:04:41;11.30;;;7.60;;
5696;SDS011;2873;50.966;7.210;2023-06-22T04:07:06;9.10;;;8.10;;
5696;SDS011;2873;50.966;7.210;2023-06-22T04:09:32;10.27;;;8.50;;
5696;SDS011;2873;50.966;7.210;2023-06-22T04:11:58;14.30;;;8.17;;
5696;SDS011;2873;50.966;7.210;2023-06-22T04:14:24;10.45;;;8.57;;
5696;SDS011;2873;50.966;7.210;2023-06-22T04:16:49;9.82;;;8.80;;
5696;SDS011;2873;50.966;7.210;2023-06-22T04:19:15;12.17;;;9.20;;
5696;SDS011;2873;50.966;7.210;2023-06-22T04:21:43;14.55;;;9.10;;
5696;SDS011;2873;50.966;7.210;2023-06-22T04:24:13;10.75;;;9.50;;
5696;SDS011;2873;50.966;7.210;2023-06-22T04:26:39;9.80;;;8.80;;
5696;SDS011;2873;50.966;7.210;2023-06-22T04:29:06;9.85;;;8.85;;
5696;SDS011;2873;50.966;7.210;2023-06-22T04:31:33;10.60;;;9.50;;
5696;SDS011;2873;50.966;7.210;2023-06-22T04:34:01;10.00;;;9.00;;
5696;SDS011;2873;50.966;7.210;2023-06-22T04:36:38;10.97;;;8.70;;
5696;SDS011;2873;50.966;7.210;2023-06-22T04:39:09;10.80;;;8.90;;
5696;SDS011;2873;50.966;7.210;2023-06-22T04:41:36;9.82;;;8.82;;
5696;SDS011;2873;50.966;7.210;2023-06-22T04:44:11;12.88;;;9.63;;
5696;SDS011;2873;50.966;7.210;2023-06-22T04:46:38;12.13;;;9.65;;
5696;SDS011;2873;50.966;7.210;2023-06-22T04:49:04;11.07;;;9.93;;
5696;SDS011;2873;50.966;7.210;2023-06-22T04:51:39;10.98;;;9.73;;
5696;SDS011;2873;50.966;7.210;2023-06-22T04:54:06;11.10;;;9.73;;
5696;SDS011;2873;50.966;7.210;2023-06-22T04:56:32;15.30;;;9.55;;
5696;SDS011;2873;50.966;7.210;2023-06-22T04:58:58;10.68;;;9.57;;
5696;SDS011;2873;50.966;7.210;2023-06-22T05:01:24;13.23;;;9.02;;
5696;SDS011;2873;50.966;7.210;2023-06-22T05:03:50;11.20;;;10.00;;
5696;SDS011;2873;50.966;7.210;2023-06-22T05:06:16;10.68;;;9.50;;
5696;SDS011;2873;50.966;7.210;2023-06-22T05:08:42;13.68;;;10.50;;
5696;SDS011;2873;50.966;7.210;2023-06-22T05:11:08;10.60;;;9.50;;
5696;SDS011;2873;50.966;7.210;2023-06-22T05:13:34;11.20;;;9.63;;
5696;SDS011;2873;50.966;7.210;2023-06-22T05:15:59;10.63;;;9.53;;
5696;SDS011;2873;50.966;7.210;2023-06-22T05:18:28;10.65;;;9.50;;
5696;SDS011;2873;50.966;7.210;2023-06-22T05:20:55;11.10;;;9.85;;
5696;SDS011;2873;50.966;7.210;2023-06-22T05:23:20;11.13;;;9.40;;
5696;SDS011;2873;50.966;7.210;2023-06-22T05:25:46;10.55;;;9.45;;
5696;SDS011;2873;50.966;7.210;2023-06-22T05:28:11;10.70;;;9.60;;
5696;SDS011;2873;50.966;7.210;2023-06-22T05:30:37;11.23;;;9.90;;
5696;SDS011;2873;50.966;7.210;2023-06-22T05:33:03;10.70;;;9.60;;
5696;SDS011;2873;50.966;7.210;2023-06-22T05:35:28;11.18;;;9.98;;
5696;SDS011;2873;50.966;7.210;2023-06-22T05:37:54;11.20;;;9.47;;
5696;SDS011;2873;50.966;7.210;2023-06-22T05:40:20;10.50;;;9.40;;
5696;SDS011;2873;50.966;7.210;2023-06-22T05:42:46;11.38;;;9.93;;
5696;SDS011;2873;50.966;7.210;2023-06-22T05:45:12;13.43;;;9.85;;
5696;SDS011;2873;50.966;7.210;2023-06-22T05:47:38;11.10;;;9.50;;
5696;SDS011;2873;50.966;7.210;2023-06-22T05:50:04;11.07;;;9.87;;
5696;SDS011;2873;50.966;7.210;2023-06-22T05:52:33;12.02;;;9.75;;
5696;SDS011;2873;50.966;7.210;2023-06-22T05:54:58;11.43;;;10.30;;
5696;SDS011;2873;50.966;7.210;2023-06-22T05:57:24;12.05;;;10.10;;
5696;SDS011;2873;50.966;7.210;2023-06-22T05:59:49;12.18;;;9.75;;
5696;SDS011;2873;50.966;7.210;2023-06-22T06:02:15;14.90;;;9.95;;
5696;SDS011;2873;50.966;7.210;2023-06-22T06:04:41;13.57;;;10.07;;
5696;SDS011;2873;50.966;7.210;2023-06-22T06:07:06;10.43;;;9.37;;
5696;SDS011;2873;50.966;7.210;2023-06-22T06:09:32;11.50;;;9.50;;
5696;SDS011;2873;50.966;7.210;2023-06-22T06:11:57;11.77;;;10.10;;
5696;SDS011;2873;50.966;7.210;2023-06-22T06:14:23;10.13;;;8.80;;
5696;SDS011;2873;50.966;7.210;2023-06-22T06:16:49;10.40;;;9.30;;
5696;SDS011;2873;50.966;7.210;2023-06-22T06:19:15;12.13;;;9.50;;
5696;SDS011;2873;50.966;7.210;2023-06-22T06:21:40;11.23;;;10.02;;
5696;SDS011;2873;50.966;7.210;2023-06-22T06:24:06;16.85;;;10.10;;
5696;SDS011;2873;50.966;7.210;2023-06-22T06:26:31;11.75;;;9.38;;
5696;SDS011;2873;50.966;7.210;2023-06-22T06:28:59;13.68;;;9.98;;
5696;SDS011;2873;50.966;7.210;2023-06-22T06:31:25;9.82;;;8.77;;
5696;SDS011;2873;50.966;7.210;2023-06-22T06:33:53;9.73;;;8.70;;
5696;SDS011;2873;50.966;7.210;2023-06-22T06:36:22;9.75;;;8.50;;
5696;SDS011;2873;50.966;7.210;2023-06-22T06:38:48;11.13;;;9.33;;
5696;SDS011;2873;50.966;7.210;2023-06-22T06:41:14;10.45;;;8.13;;
5696;SDS011;2873;50.966;7.210;2023-06-22T06:43:40;10.48;;;8.07;;
5696;SDS011;2873;50.966;7.210;2023-06-22T06:46:08;9.30;;;8.40;;
5696;SDS011;2873;50.966;7.210;2023-06-22T06:48:34;9.60;;;8.60;;
5696;SDS011;2873;50.966;7.210;2023-06-22T06:50:59;11.10;;;8.67;;
5696;SDS011;2873;50.966;7.210;2023-06-22T06:53:25;15.17;;;8.80;;
5696;SDS011;2873;50.966;7.210;2023-06-22T06:55:50;10.45;;;8.70;;
5696;SDS011;2873;50.966;7.210;2023-06-22T06:58:16;11.30;;;8.55;;
5696;SDS011;2873;50.966;7.210;2023-06-22T07:00:41;9.15;;;8.25;;
5696;SDS011;2873;50.966;7.210;2023-06-22T07:03:08;10.93;;;8.00;;
5696;SDS011;2873;50.966;7.210;2023-06-22T07:05:34;11.20;;;9.10;;
5696;SDS011;2873;50.966;7.210;2023-06-22T07:08:00;10.20;;;8.50;;
5696;SDS011;2873;50.966;7.210;2023-06-22T07:10:26;10.10;;;8.60;;
5696;SDS011;2873;50.966;7.210;2023-06-22T07:12:51;9.80;;;8.30;;
5696;SDS011;2873;50.966;7.210;2023-06-22T07:15:17;9.90;;;7.90;;
5696;SDS011;2873;50.966;7.210;2023-06-22T07:17:43;12.35;;;7.78;;
5696;SDS011;2873;50.966;7.210;2023-06-22T07:20:08;8.90;;;8.00;;
5696;SDS011;2873;50.966;7.210;2023-06-22T07:22:38;9.07;;;7.50;;
5696;SDS011;2873;50.966;7.210;2023-06-22T07:25:04;8.50;;;7.70;;
5696;SDS011;2873;50.966;7.210;2023-06-22T07:27:56;9.70;;;7.82;;
5696;SDS011;2873;50.966;7.210;2023-06-22T07:30:29;9.52;;;8.20;;
5696;SDS011;2873;50.966;7.210;2023-06-22T07:32:56;9.30;;;8.40;;
5696;SDS011;2873;50.966;7.210;2023-06-22T07:35:22;9.23;;;8.10;;
5696;SDS011;2873;50.966;7.210;2023-06-22T07:37:47;7.90;;;7.10;;
5696;SDS011;2873;50.966;7.210;2023-06-22T07:40:13;8.77;;;7.90;;
5696;SDS011;2873;50.966;7.210;2023-06-22T07:42:38;12.13;;;7.80;;
5696;SDS011;2873;50.966;7.210;2023-06-22T07:45:04;9.53;;;8.13;;
5696;SDS011;2873;50.966;7.210;2023-06-22T07:47:33;8.50;;;7.40;;
5696;SDS011;2873;50.966;7.210;2023-06-22T07:50:00;9.30;;;7.85;;
5696;SDS011;2873;50.966;7.210;2023-06-22T07:52:29;8.73;;;7.82;;
5696;SDS011;2873;50.966;7.210;2023-06-22T07:54:55;13.50;;;7.30;;
5696;SDS011;2873;50.966;7.210;2023-06-22T07:57:21;10.23;;;7.00;;
5696;SDS011;2873;50.966;7.210;2023-06-22T07:59:47;9.85;;;8.02;;
5696;SDS011;2873;50.966;7.210;2023-06-22T08:02:12;9.30;;;7.90;;
5696;SDS011;2873;50.966;7.210;2023-06-22T08:04:38;8.60;;;7.70;;
5696;SDS011;2873;50.966;7.210;2023-06-22T08:07:04;9.25;;;7.50;;
5696;SDS011;2873;50.966;7.210;2023-06-22T08:09:30;8.00;;;7.20;;
5696;SDS011;2873;50.966;7.210;2023-06-22T08:11:58;12.98;;;8.27;;
5696;SDS011;2873;50.966;7.210;2023-06-22T08:14:27;8.73;;;7.90;;
5696;SDS011;2873;50.966;7.210;2023-06-22T08:16:54;7.80;;;7.10;;
5696;SDS011;2873;50.966;7.210;2023-06-22T08:19:20;7.93;;;7.20;;
5696;SDS011;2873;50.966;7.210;2023-06-22T08:21:46;9.38;;;7.60;;
5696;SDS011;2873;50.966;7.210;2023-06-22T08:24:11;10.02;;;8.38;;
5696;SDS011;2873;50.966;7.210;2023-06-22T08:26:37;8.80;;;7.77;;
5696;SDS011;2873;50.966;7.210;2023-06-22T08:29:03;8.32;;;7.53;;
5696;SDS011;2873;50.966;7.210;2023-06-22T08:31:29;9.20;;;8.20;;
5696;SDS011;2873;50.966;7.210;2023-06-22T08:33:56;8.77;;;7.75;;
5696;SDS011;2873;50.966;7.210;2023-06-22T08:36:21;8.03;;;7.23;;
5696;SDS011;2873;50.966;7.210;2023-06-22T08:38:47;8.45;;;7.60;;
5696;SDS011;2873;50.966;7.210;2023-06-22T08:41:16;8.30;;;7.20;;
5696;SDS011;2873;50.966;7.210;2023-06-22T08:43:42;8.32;;;7.53;;
5696;SDS011;2873;50.966;7.210;2023-06-22T08:46:09;9.80;;;8.00;;
5696;SDS011;2873;50.966;7.210;2023-06-22T08:48:35;13.88;;;7.40;;
5696;SDS011;2873;50.966;7.210;2023-06-22T08:51:01;8.27;;;7.20;;
5696;SDS011;2873;50.966;7.210;2023-06-22T08:53:27;10.07;;;7.93;;
5696;SDS011;2873;50.966;7.210;2023-06-22T08:55:53;11.63;;;7.60;;
5696;SDS011;2873;50.966;7.210;2023-06-22T08:58:18;7.70;;;6.90;;
5696;SDS011;2873;50.966;7.210;2023-06-22T09:00:46;9.30;;;7.18;;
5696;SDS011;2873;50.966;7.210;2023-06-22T09:03:12;10.30;;;7.50;;
5696;SDS011;2873;50.966;7.210;2023-06-22T09:05:37;7.43;;;6.72;;
5696;SDS011;2873;50.966;7.210;2023-06-22T09:08:03;8.55;;;7.05;;
5696;SDS011;2873;50.966;7.210;2023-06-22T09:10:29;7.20;;;6.60;;
5696;SDS011;2873;50.966;7.210;2023-06-22T09:12:54;9.07;;;6.70;;
5696;SDS011;2873;50.966;7.210;2023-06-22T09:15:20;9.17;;;6.73;;
5696;SDS011;2873;50.966;7.210;2023-06-22T09:17:46;7.18;;;6.55;;
5696;SDS011;2873;50.966;7.210;2023-06-22T09:20:11;7.70;;;7.00;;
5696;SDS011;2873;50.966;7.210;2023-06-22T09:22:37;8.15;;;6.95;;
5696;SDS011;2873;50.966;7.210;2023-06-22T09:25:03;8.65;;;6.70;;
5696;SDS011;2873;50.966;7.210;2023-06-22T09:27:29;8.98;;;7.60;;
5696;SDS011;2873;50.966;7.210;2023-06-22T09:29:55;9.70;;;8.00;;
5696;SDS011;2873;50.966;7.210;2023-06-22T09:32:23;8.48;;;6.90;;
5696;SDS011;2873;50.966;7.210;2023-06-22T09:34:49;7.97;;;7.18;;
5696;SDS011;2873;50.966;7.210;2023-06-22T09:37:14;7.80;;;7.10;;
5696;SDS011;2873;50.966;7.210;2023-06-22T09:39:40;7.70;;;7.00;;
5696;SDS011;2873;50.966;7.210;2023-06-22T09:42:06;7.80;;;7.00;;
5696;SDS011;2873;50.966;7.210;2023-06-22T09:44:31;14.00;;;7.95;;
5696;SDS011;2873;50.966;7.210;2023-06-22T09:46:57;8.13;;;7.30;;
5696;SDS011;2873;50.966;7.210;2023-06-22T09:49:23;10.00;;;7.65;;
5696;SDS011;2873;50.966;7.210;2023-06-22T09:51:48;7.97;;;7.18;;
5696;SDS011;2873;50.966;7.210;2023-06-22T09:54:15;8.70;;;7.80;;
5696;SDS011;2873;50.966;7.210;2023-06-22T09:56:41;9.57;;;7.68;;
5696;SDS011;2873;50.966;7.210;2023-06-22T09:59:07;8.05;;;7.25;;
5696;SDS011;2873;50.966;7.210;2023-06-22T10:01:32;8.52;;;7.20;;
5696;SDS011;2873;50.966;7.210;2023-06-22T10:03:58;8.50;;;7.32;;
5696;SDS011;2873;50.966;7.210;2023-06-22T10:06:23;11.15;;;7.78;;
5696;SDS011;2873;50.966;7.210;2023-06-22T10:08:50;8.20;;;7.50;;
5696;SDS011;2873;50.966;7.210;2023-06-22T10:11:16;8.57;;;7.65;;
5696;SDS011;2873;50.966;7.210;2023-06-22T10:13:42;8.70;;;7.80;;
5696;SDS011;2873;50.966;7.210;2023-06-22T10:16:07;10.40;;;7.30;;
5696;SDS011;2873;50.966;7.210;2023-06-22T10:18:33;11.73;;;8.85;;
5696;SDS011;2873;50.966;7.210;2023-06-22T10:20:59;11.47;;;7.90;;
5696;SDS011;2873;50.966;7.210;2023-06-22T10:23:25;8.90;;;8.00;;
5696;SDS011;2873;50.966;7.210;2023-06-22T10:25:50;9.20;;;8.23;;
5696;SDS011;2873;50.966;7.210;2023-06-22T10:28:16;8.20;;;7.50;;
5696;SDS011;2873;50.966;7.210;2023-06-22T10:30:42;8.70;;;7.15;;
5696;SDS011;2873;50.966;7.210;2023-06-22T10:33:08;8.60;;;7.47;;
5696;SDS011;2873;50.966;7.210;2023-06-22T10:35:34;8.77;;;7.88;;
5696;SDS011;2873;50.966;7.210;2023-06-22T10:38:02;8.88;;;7.28;;
5696;SDS011;2873;50.966;7.210;2023-06-22T10:40:28;8.10;;;7.30;;
5696;SDS011;2873;50.966;7.210;2023-06-22T10:42:54;8.85;;;7.95;;
5696;SDS011;2873;50.966;7.210;2023-06-22T10:45:19;13.77;;;8.32;;
5696;SDS011;2873;50.966;7.210;2023-06-22T10:47:45;11.00;;;8.15;;
5696;SDS011;2873;50.966;7.210;2023-06-22T10:50:11;10.60;;;8.33;;
5696;SDS011;2873;50.966;7.210;2023-06-22T10:52:38;11.13;;;7.72;;
5696;SDS011;2873;50.966;7.210;2023-06-22T10:55:05;10.80;;;8.60;;
5696;SDS011;2873;50.966;7.210;2023-06-22T10:57:31;10.98;;;9.38;;
5696;SDS011;2873;50.966;7.210;2023-06-22T10:59:56;10.40;;;8.93;;
5696;SDS011;2873;50.966;7.210;2023-06-22T11:02:22;9.85;;;8.48;;
5696;SDS011;2873;50.966;7.210;2023-06-22T11:04:48;11.50;;;8.80;;
5696;SDS011;2873;50.966;7.210;2023-06-22T11:07:14;11.30;;;9.53;;
5696;SDS011;2873;50.966;7.210;2023-06-22T11:09:40;15.70;;;10.05;;
5696;SDS011;2873;50.966;7.210;2023-06-22T11:12:08;11.25;;;10.05;;
5696;SDS011;2873;50.966;7.210;2023-06-22T11:14:34;13.18;;;10.07;;
5696;SDS011;2873;50.966;7.210;2023-06-22T11:16:59;20.73;;;11.30;;
5696;SDS011;2873;50.966;7.210;2023-06-22T11:19:25;13.90;;;9.60;;
5696;SDS011;2873;50.966;7.210;2023-06-22T11:21:51;12.45;;;9.98;;
5696;SDS011;2873;50.966;7.210;2023-06-22T11:24:17;16.50;;;10.80;;
5696;SDS011;2873;50.966;7.210;2023-06-22T11:26:42;16.60;;;10.85;;
5696;SDS011;2873;50.966;7.210;2023-06-22T11:29:08;16.20;;;10.97;;
5696;SDS011;2873;50.966;7.210;2023-06-22T11:31:34;15.20;;;11.90;;
5696;SDS011;2873;50.966;7.210;2023-06-22T11:34:00;16.90;;;11.60;;
5696;SDS011;2873;50.966;7.210;2023-06-22T11:36:26;16.00;;;12.00;;
5696;SDS011;2873;50.966;7.210;2023-06-22T11:38:52;14.85;;;11.65;;
5696;SDS011;2873;50.966;7.210;2023-06-22T11:41:18;17.73;;;11.77;;
5696;SDS011;2873;50.966;7.210;2023-06-22T11:43:44;15.38;;;11.20;;
5696;SDS011;2873;50.966;7.210;2023-06-22T11:46:10;13.07;;;11.30;;
5696;SDS011;2873;50.966;7.210;2023-06-22T11:48:35;13.70;;;11.30;;
5696;SDS011;2873;50.966;7.210;2023-06-22T11:51:01;14.13;;;10.70;;
5696;SDS011;2873;50.966;7.210;2023-06-22T11:53:28;13.63;;;11.75;;
5696;SDS011;2873;50.966;7.210;2023-06-22T11:55:54;14.18;;;11.85;;
5696;SDS011;2873;50.966;7.210;2023-06-22T11:58:21;13.73;;;11.00;;
5696;SDS011;2873;50.966;7.210;2023-06-22T12:04:08;12.77;;;10.87;;
5696;SDS011;2873;50.966;7.210;2023-06-22T12:06:37;14.63;;;11.73;;
5696;SDS011;2873;50.966;7.210;2023-06-22T12:09:04;14.35;;;11.70;;
5696;SDS011;2873;50.966;7.210;2023-06-22T12:11:30;21.93;;;11.53;;
5696;SDS011;2873;50.966;7.210;2023-06-22T12:13:55;15.85;;;10.85;;
5696;SDS011;2873;50.966;7.210;2023-06-22T12:16:27;15.57;;;11.10;;
5696;SDS011;2873;50.966;7.210;2023-06-22T12:18:55;16.60;;;12.10;;
5696;SDS011;2873;50.966;7.210;2023-06-22T12:21:21;15.95;;;13.18;;
5696;SDS011;2873;50.966;7.210;2023-06-22T12:23:46;16.50;;;12.50;;
5696;SDS011;2873;50.966;7.210;2023-06-22T12:26:12;13.90;;;11.85;;
5696;SDS011;2873;50.966;7.210;2023-06-22T12:28:37;15.77;;;11.90;;
5696;SDS011;2873;50.966;7.210;2023-06-22T12:31:03;14.43;;;11.60;;
5696;SDS011;2873;50.966;7.210;2023-06-22T12:33:29;12.63;;;11.30;;
5696;SDS011;2873;50.966;7.210;2023-06-22T12:35:55;17.80;;;12.40;;
5696;SDS011;2873;50.966;7.210;2023-06-22T12:38:21;13.97;;;12.07;;
5696;SDS011;2873;50.966;7.210;2023-06-22T12:40:47;13.05;;;11.75;;
5696;SDS011;2873;50.966;7.210;2023-06-22T12:43:14;15.20;;;11.80;;
5696;SDS011;2873;50.966;7.210;2023-06-22T12:45:40;13.48;;;11.40;;
5696;SDS011;2873;50.966;7.210;2023-06-22T12:48:05;12.07;;;10.77;;
5696;SDS011;2873;50.966;7.210;2023-06-22T12:50:31;14.73;;;11.33;;
5696;SDS011;2873;50.966;7.210;2023-06-22T12:52:57;12.80;;;11.10;;
5696;SDS011;2873;50.966;7.210;2023-06-22T12:55:23;14.90;;;12.20;;
5696;SDS011;2873;50.966;7.210;2023-06-22T12:57:48;15.00;;;11.38;;
5696;SDS011;2873;50.966;7.210;2023-06-22T13:00:14;14.35;;;11.38;;
5696;SDS011;2873;50.966;7.210;2023-06-22T13:02:40;12.53;;;10.70;;
5696;SDS011;2873;50.966;7.210;2023-06-22T13:05:06;12.83;;;11.30;;
5696;SDS011;2873;50.966;7.210;2023-06-22T13:07:31;14.20;;;10.90;;
5696;SDS011;2873;50.966;7.210;2023-06-22T13:09:57;11.63;;;10.53;;
5696;SDS011;2873;50.966;7.210;2023-06-22T13:12:23;12.30;;;11.00;;
5696;SDS011;2873;50.966;7.210;2023-06-22T13:14:48;11.73;;;10.53;;
5696;SDS011;2873;50.966;7.210;2023-06-22T13:17:14;16.63;;;10.10;;
5696;SDS011;2873;50.966;7.210;2023-06-22T13:19:40;11.38;;;10.23;;
5696;SDS011;2873;50.966;7.210;2023-06-22T13:24:55;10.80;;;9.70;;
5696;SDS011;2873;50.966;7.210;2023-06-22T13:27:21;11.80;;;9.25;;
5696;SDS011;2873;50.966;7.210;2023-06-22T13:29:47;12.25;;;8.98;;
5696;SDS011;2873;50.966;7.210;2023-06-22T13:32:12;10.20;;;9.20;;
5696;SDS011;2873;50.966;7.210;2023-06-22T13:34:38;9.00;;;8.10;;
5696;SDS011;2873;50.966;7.210;2023-06-22T13:37:04;8.50;;;7.80;;
5696;SDS011;2873;50.966;7.210;2023-06-22T13:39:30;7.47;;;6.87;;
5696;SDS011;2873;50.966;7.210;2023-06-22T13:41:56;7.70;;;7.00;;
5696;SDS011;2873;50.966;7.210;2023-06-22T13:44:22;8.32;;;6.78;;
5696;SDS011;2873;50.966;7.210;2023-06-22T13:46:48;6.70;;;6.10;;
5696;SDS011;2873;50.966;7.210;2023-06-22T13:49:13;6.10;;;5.50;;
5696;SDS011;2873;50.966;7.210;2023-06-22T13:51:39;6.13;;;5.53;;
5696;SDS011;2873;50.966;7.210;2023-06-22T13:54:05;7.93;;;5.70;;
5696;SDS011;2873;50.966;7.210;2023-06-22T13:56:30;6.73;;;5.57;;
5696;SDS011;2873;50.966;7.210;2023-06-22T13:58:57;5.90;;;5.40;;
5696;SDS011;2873;50.966;7.210;2023-06-22T14:01:23;6.30;;;5.70;;
5696;SDS011;2873;50.966;7.210;2023-06-22T14:03:48;8.65;;;5.63;;
5696;SDS011;2873;50.966;7.210;2023-06-22T14:06:14;6.25;;;5.65;;
5696;SDS011;2873;50.966;7.210;2023-06-22T14:08:39;7.07;;;6.18;;
5696;SDS011;2873;50.966;7.210;2023-06-22T14:11:05;7.57;;;6.90;;
5696;SDS011;2873;50.966;7.210;2023-06-22T14:13:31;7.15;;;6.50;;
5696;SDS011;2873;50.966;7.210;2023-06-22T14:15:56;7.45;;;6.75;;
5696;SDS011;2873;50.966;7.210;2023-06-22T14:18:22;7.75;;;7.05;;
5696;SDS011;2873;50.966;7.210;2023-06-22T14:20:48;7.60;;;6.90;;
5696;SDS011;2873;50.966;7.210;2023-06-22T14:23:14;8.20;;;7.20;;
5696;SDS011;2873;50.966;7.210;2023-06-22T14:25:40;7.82;;;7.13;;
5696;SDS011;2873;50.966;7.210;2023-06-22T14:28:05;7.97;;;7.27;;
5696;SDS011;2873;50.966;7.210;2023-06-22T14:30:31;8.13;;;7.30;;
5696;SDS011;2873;50.966;7.210;2023-06-22T14:32:57;8.88;;;7.32;;
5696;SDS011;2873;50.966;7.210;2023-06-22T14:35:22;8.70;;;7.90;;
5696;SDS011;2873;50.966;7.210;2023-06-22T14:37:49;8.55;;;7.65;;
5696;SDS011;2873;50.966;7.210;2023-06-22T14:40:15;7.97;;;7.22;;
5696;SDS011;2873;50.966;7.210;2023-06-22T14:42:41;9.93;;;7.80;;
5696;SDS011;2873;50.966;7.210;2023-06-22T14:45:06;8.50;;;7.70;;
5696;SDS011;2873;50.966;7.210;2023-06-22T14:47:32;9.32;;;8.00;;
5696;SDS011;2873;50.966;7.210;2023-06-22T14:49:58;9.75;;;8.27;;
5696;SDS011;2873;50.966;7.210;2023-06-22T14:52:25;8.93;;;8.03;;
5696;SDS011;2873;50.966;7.210;2023-06-22T14:54:51;9.10;;;8.20;;
5696;SDS011;2873;50.966;7.210;2023-06-22T14:57:17;9.20;;;8.27;;
5696;SDS011;2873;50.966;7.210;2023-06-22T14:59:45;9.73;;;8.82;;
5696;SDS011;2873;50.966;7.210;2023-06-22T15:02:14;12.98;;;9.00;;
5696;SDS011;2873;50.966;7.210;2023-06-22T15:04:39;14.37;;;9.70;;
5696;SDS011;2873;50.966;7.210;2023-06-22T15:07:05;11.50;;;9.60;;
5696;SDS011;2873;50.966;7.210;2023-06-22T15:09:31;11.93;;;9.40;;
5696;SDS011;2873;50.966;7.210;2023-06-22T15:11:57;11.10;;;8.40;;
5696;SDS011;2873;50.966;7.210;2023-06-22T15:14:23;10.60;;;9.20;;
5696;SDS011;2873;50.966;7.210;2023-06-22T15:16:49;10.70;;;9.18;;